createdAt,value
2019-05-10T00:00:33.308Z,67.90
2019-05-10T00:03:19.898Z,68.30
2019-05-10T00:06:06.321Z,68.20
2019-05-10T00:08:45.862Z,68.20
2019-05-10T00:11:20.908Z,68.30
2019-05-10T00:13:50.889Z,68.30
2019-05-10T00:16:19.268Z,68.40
2019-05-10T00:18:47.626Z,68.30
2019-05-10T00:21:16.262Z,68.60
2019-05-10T00:23:44.590Z,68.80
2019-05-10T00:26:12.911Z,68.80
2019-05-10T00:28:41.201Z,69.00
2019-05-10T00:31:09.505Z,69.00
2019-05-10T00:33:37.845Z,68.70
2019-05-10T00:36:06.169Z,69.00
2019-05-10T00:38:34.480Z,69.20
2019-05-10T00:41:02.841Z,69.20
2019-05-10T00:43:31.146Z,69.20
2019-05-10T00:45:59.460Z,70.10
2019-05-10T00:48:27.801Z,69.30
2019-05-10T00:50:56.118Z,69.60
2019-05-10T00:53:24.414Z,69.60
2019-05-10T00:55:52.818Z,69.40
2019-05-10T00:58:21.196Z,69.40
2019-05-10T01:00:49.525Z,69.50
2019-05-10T01:03:18.178Z,69.60
2019-05-10T01:05:46.507Z,69.80
2019-05-10T01:08:14.816Z,69.70
2019-05-10T01:10:43.187Z,69.90
2019-05-10T01:13:11.492Z,69.90
2019-05-10T01:15:39.798Z,69.80
2019-05-10T01:18:08.129Z,70.00
2019-05-10T01:20:36.423Z,70.10
2019-05-10T01:23:05.047Z,70.10
2019-05-10T01:25:35.550Z,70.10
2019-05-10T01:28:03.808Z,70.30
2019-05-10T01:30:32.517Z,70.30
2019-05-10T01:33:00.839Z,70.60
2019-05-10T01:35:29.175Z,70.50
2019-05-10T01:37:57.473Z,70.60
2019-05-10T01:40:25.833Z,70.80
2019-05-10T01:42:54.140Z,70.90
2019-05-10T01:45:22.537Z,71.30
2019-05-10T01:47:50.869Z,71.60
2019-05-10T01:50:19.159Z,71.90
2019-05-10T01:52:47.469Z,72.30
2019-05-10T01:55:15.847Z,72.40
2019-05-10T01:57:44.187Z,72.70
2019-05-10T02:00:13.762Z,72.60
2019-05-10T02:02:42.511Z,73.00
2019-05-10T02:05:10.889Z,73.20
2019-05-10T02:10:42.768Z,73.00
2019-05-10T02:13:11.100Z,73.30
2019-05-10T02:15:39.404Z,73.60
2019-05-10T02:18:11.203Z,73.90
2019-05-10T02:20:39.880Z,73.60
2019-05-10T02:23:08.241Z,73.90
2019-05-10T02:25:36.547Z,74.10
2019-05-10T02:28:04.859Z,74.30
2019-05-10T02:30:33.155Z,74.50
2019-05-10T02:33:01.493Z,74.50
2019-05-10T02:35:29.790Z,74.80
2019-05-10T02:37:58.098Z,74.80
2019-05-10T02:40:26.473Z,74.70
2019-05-10T02:42:54.863Z,74.70
2019-05-10T02:45:23.155Z,75.00
2019-05-10T02:47:51.486Z,75.00
2019-05-10T02:50:19.779Z,75.20
2019-05-10T02:52:48.093Z,75.30
2019-05-10T02:55:16.416Z,75.60
2019-05-10T02:57:44.943Z,75.60
2019-05-10T03:00:13.296Z,75.60
2019-05-10T03:02:41.600Z,75.80
2019-05-10T03:05:09.911Z,75.90
2019-05-10T03:07:38.463Z,76.10
2019-05-10T03:10:10.060Z,76.20
2019-05-10T03:12:40.580Z,76.30
2019-05-10T03:15:10.979Z,76.30
2019-05-10T03:17:39.943Z,76.50
2019-05-10T03:20:08.348Z,77.10
2019-05-10T03:22:41.385Z,77.10
2019-05-10T03:25:10.123Z,77.30
2019-05-10T03:27:38.901Z,77.30
2019-05-10T03:30:07.393Z,77.50
2019-05-10T03:32:35.729Z,77.60
2019-05-10T03:35:05.878Z,77.70
2019-05-10T03:37:34.443Z,77.60
2019-05-10T03:40:03.748Z,77.80
2019-05-10T03:42:32.124Z,77.70
2019-05-10T03:45:00.424Z,78.00
2019-05-10T03:47:29.064Z,78.10
2019-05-10T03:49:57.407Z,78.50
2019-05-10T03:52:25.713Z,77.90
2019-05-10T03:54:54.039Z,78.30
2019-05-10T03:57:22.346Z,78.30
2019-05-10T03:59:50.649Z,78.40
2019-05-10T04:02:18.993Z,78.20
2019-05-10T04:04:47.297Z,78.00
2019-05-10T04:07:16.027Z,78.00
2019-05-10T04:09:44.436Z,78.10
2019-05-10T04:12:12.783Z,78.30
2019-05-10T04:14:41.094Z,78.30
2019-05-10T04:17:09.470Z,78.30
2019-05-10T04:19:37.818Z,78.30
2019-05-10T04:22:06.113Z,78.30
2019-05-10T04:24:36.547Z,78.30
2019-05-10T04:27:04.547Z,78.40
2019-05-10T04:29:32.863Z,78.30
2019-05-10T04:32:01.179Z,78.40
2019-05-10T04:34:29.501Z,78.10
2019-05-10T04:36:57.826Z,78.00
2019-05-10T04:39:26.152Z,77.80
2019-05-10T04:41:54.516Z,77.30
2019-05-10T04:44:22.853Z,78.00
2019-05-10T04:46:51.171Z,78.10
2019-05-10T04:49:19.497Z,78.00
2019-05-10T04:51:47.819Z,77.70
2019-05-10T04:54:16.154Z,77.70
2019-05-10T04:56:44.474Z,77.70
2019-05-10T04:59:12.854Z,77.70
2019-05-10T05:01:41.243Z,77.60
2019-05-10T05:07:17.782Z,77.90
2019-05-10T05:09:46.093Z,77.60
2019-05-10T05:12:19.068Z,77.80
2019-05-10T05:14:47.505Z,77.90
2019-05-10T05:17:15.937Z,77.60
2019-05-10T05:19:46.712Z,77.70
2019-05-10T05:22:15.079Z,77.70
2019-05-10T05:24:43.495Z,77.50
2019-05-10T05:27:12.415Z,77.50
2019-05-10T05:29:40.847Z,77.30
2019-05-10T05:32:12.936Z,77.20
2019-05-10T05:34:39.327Z,77.20
2019-05-10T05:37:07.839Z,77.50
2019-05-10T05:39:36.241Z,77.70
2019-05-10T05:42:04.674Z,77.30
2019-05-10T05:44:33.107Z,77.70
2019-05-10T05:47:04.592Z,77.50
2019-05-10T05:49:31.607Z,77.80
2019-05-10T05:52:00.047Z,77.90
2019-05-10T05:54:28.493Z,77.50
2019-05-10T05:56:56.920Z,77.60
2019-05-10T05:59:26.245Z,77.50
2019-05-10T06:02:00.699Z,77.70
2019-05-10T06:04:24.911Z,77.90
2019-05-10T06:06:53.807Z,77.80
2019-05-10T06:09:23.424Z,77.60
2019-05-10T06:11:51.874Z,77.90
2019-05-10T06:14:20.328Z,78.10
2019-05-10T06:16:51.523Z,77.60
2019-05-10T06:19:20.521Z,77.70
2019-05-10T06:21:48.978Z,77.70
2019-05-10T06:24:17.389Z,77.70
2019-05-10T06:26:45.823Z,78.50
2019-05-10T06:29:17.497Z,77.70
2019-05-10T06:31:44.425Z,78.00
2019-05-10T06:34:12.861Z,78.20
2019-05-10T06:36:41.272Z,78.00
2019-05-10T06:39:10.041Z,77.70
2019-05-10T06:41:38.467Z,77.80
2019-05-10T06:44:06.913Z,77.90
2019-05-10T06:46:35.344Z,78.10
2019-05-10T06:49:08.314Z,78.40
2019-05-10T06:51:33.809Z,78.40
2019-05-10T06:54:02.260Z,77.90
2019-05-10T06:56:30.718Z,78.90
2019-05-10T06:59:12.346Z,78.00
2019-05-10T07:01:29.342Z,78.10
2019-05-10T07:03:57.966Z,77.90
2019-05-10T07:06:26.413Z,77.70
2019-05-10T07:08:57.930Z,77.70
2019-05-10T07:11:24.905Z,77.80
2019-05-10T07:13:53.394Z,77.90
2019-05-10T07:16:24.389Z,77.70
2019-05-10T07:18:54.863Z,78.10
2019-05-10T07:21:21.984Z,78.30
2019-05-10T07:23:50.793Z,78.20
2019-05-10T07:26:23.931Z,78.10
2019-05-10T07:28:51.619Z,78.10
2019-05-10T07:31:23.335Z,78.40
2019-05-10T07:33:49.433Z,79.00
2019-05-10T07:36:20.801Z,77.70
2019-05-10T07:38:47.975Z,77.80
2019-05-10T07:41:19.603Z,77.70
2019-05-10T07:43:48.209Z,77.50
2019-05-10T07:46:17.095Z,77.50
2019-05-10T07:48:47.331Z,77.50
2019-05-10T07:51:15.635Z,77.60
2019-05-10T07:53:44.137Z,77.50
2019-05-10T07:56:12.555Z,77.70
2019-05-10T07:58:43.204Z,77.90
2019-05-10T08:01:11.063Z,77.80
2019-05-10T08:03:44.386Z,77.60
2019-05-10T08:06:09.598Z,77.60
2019-05-10T08:08:39.150Z,77.20
2019-05-10T08:11:08.596Z,76.80
2019-05-10T08:13:39.350Z,77.30
2019-05-10T08:16:11.908Z,77.50
2019-05-10T08:18:42.034Z,77.20
2019-05-10T08:21:18.788Z,76.90
2019-05-10T08:23:37.649Z,76.80
2019-05-10T08:26:10.903Z,77.00
2019-05-10T08:28:37.857Z,76.50
2019-05-10T08:31:06.256Z,76.40
2019-05-10T08:33:34.706Z,76.20
2019-05-10T08:36:05.433Z,75.50
2019-05-10T08:38:33.252Z,75.40
2019-05-10T08:41:02.678Z,75.30
2019-05-10T08:43:38.776Z,75.70
2019-05-10T08:46:02.736Z,75.10
2019-05-10T08:48:33.062Z,74.90
2019-05-10T08:51:03.986Z,75.00
2019-05-10T08:53:32.871Z,75.20
2019-05-10T08:56:02.223Z,75.10
2019-05-10T08:58:36.970Z,74.70
2019-05-10T09:01:16.439Z,74.60
2019-05-10T09:03:32.331Z,74.40
2019-05-10T09:06:05.327Z,74.30
2019-05-10T09:08:32.522Z,74.20
2019-05-10T09:11:06.439Z,73.50
2019-05-10T09:13:37.239Z,73.50
2019-05-10T09:16:02.413Z,73.60
2019-05-10T09:18:32.950Z,73.70
2019-05-10T09:21:08.613Z,74.10
2019-05-10T09:23:32.675Z,73.20
2019-05-10T09:26:09.525Z,72.20
2019-05-10T09:28:32.207Z,72.20
2019-05-10T09:31:16.532Z,72.10
2019-05-10T09:33:32.003Z,72.10
2019-05-10T09:36:02.735Z,73.00
2019-05-10T09:38:34.879Z,72.50
2019-05-10T09:41:02.496Z,72.30
2019-05-10T09:43:31.943Z,72.30
2019-05-10T09:46:02.746Z,72.00
2019-05-10T09:48:33.097Z,72.20
2019-05-10T09:51:03.969Z,71.30
2019-05-10T09:53:31.520Z,71.20
2019-05-10T09:56:02.868Z,70.60
2019-05-10T09:58:29.980Z,70.20
2019-05-10T10:01:13.957Z,70.00
2019-05-10T10:03:29.984Z,69.50
2019-05-10T10:06:05.178Z,68.90
2019-05-10T10:08:29.248Z,67.00
2019-05-10T10:11:01.154Z,67.70
2019-05-10T10:13:39.272Z,67.30
2019-05-10T10:15:58.155Z,66.90
2019-05-10T10:18:28.424Z,66.90
2019-05-10T10:20:56.596Z,66.40
2019-05-10T10:23:30.668Z,66.30
2019-05-10T10:25:55.196Z,67.00
2019-05-10T10:28:23.575Z,66.30
2019-05-10T10:30:58.969Z,66.20
2019-05-10T10:33:25.345Z,65.00
2019-05-10T10:35:56.208Z,64.00
2019-05-10T10:38:22.233Z,64.20
2019-05-10T10:40:50.603Z,65.40
2019-05-10T10:43:19.009Z,65.70
2019-05-10T10:45:47.374Z,64.40
2019-05-10T10:48:17.729Z,64.20
2019-05-10T10:50:53.399Z,64.20
2019-05-10T10:53:17.907Z,64.80
2019-05-10T10:55:54.206Z,65.20
2019-05-10T10:58:18.538Z,64.10
2019-05-10T11:00:48.127Z,64.10
2019-05-10T11:03:16.192Z,64.40
2019-05-10T11:05:44.589Z,63.10
2019-05-10T11:08:12.938Z,62.20
2019-05-10T11:10:42.977Z,60.90
2019-05-10T11:13:18.808Z,62.20
2019-05-10T11:15:42.115Z,59.40
2019-05-10T11:18:10.670Z,58.80
2019-05-10T11:20:41.920Z,58.90
2019-05-10T11:23:10.678Z,58.50
2019-05-10T11:25:42.723Z,59.00
2019-05-10T11:28:12.193Z,58.70
2019-05-10T11:30:40.519Z,59.60
2019-05-10T11:33:23.837Z,59.90
2019-05-10T11:35:41.549Z,59.30
2019-05-10T11:38:12.736Z,59.20
2019-05-10T11:40:41.709Z,58.50
2019-05-10T11:43:09.404Z,59.00
2019-05-10T11:45:41.122Z,59.60
2019-05-10T11:48:07.722Z,59.50
2019-05-10T11:50:36.101Z,59.50
2019-05-10T11:55:35.701Z,59.20
2019-05-10T11:58:08.734Z,58.50
2019-05-10T11:59:04.732Z,59.50
2019-05-10T12:00:34.874Z,58.20
2019-05-10T12:03:11.332Z,57.80
2019-05-10T12:05:33.334Z,57.70
2019-05-10T12:08:02.255Z,56.60
2019-05-10T12:10:31.988Z,56.40
2019-05-10T12:13:11.381Z,55.50
2019-05-10T12:15:31.797Z,55.40
2019-05-10T12:18:04.506Z,54.40
2019-05-10T12:20:54.079Z,55.30
2019-05-10T12:23:03.213Z,55.50
2019-05-10T12:25:46.245Z,55.50
2019-05-10T12:28:02.564Z,55.40
2019-05-10T12:30:35.078Z,55.40
2019-05-10T12:33:08.867Z,56.30
2019-05-10T12:35:35.638Z,54.70
2019-05-10T12:38:01.610Z,53.90
2019-05-10T12:40:31.461Z,54.70
2019-05-10T12:43:00.678Z,54.10
2019-05-10T12:45:31.335Z,54.40
2019-05-10T12:48:01.099Z,55.40
2019-05-10T12:50:29.178Z,56.00
2019-05-10T12:53:14.010Z,54.50
2019-05-10T12:55:27.585Z,54.90
2019-05-10T12:57:56.414Z,54.80
2019-05-10T13:00:24.793Z,54.10
2019-05-10T13:02:53.631Z,53.40
2019-05-10T13:05:30.814Z,53.50
2019-05-10T13:07:52.123Z,53.30
2019-05-10T13:10:20.497Z,53.90
2019-05-10T13:12:48.879Z,54.00
2019-05-10T13:15:17.277Z,53.60
2019-05-10T13:17:50.715Z,52.80
2019-05-10T13:20:15.641Z,52.90
2019-05-10T13:22:44.027Z,53.30
2019-05-10T13:25:12.446Z,53.50
2019-05-10T13:27:40.904Z,53.00
2019-05-10T13:30:09.439Z,52.40
2019-05-10T13:32:37.852Z,52.90
2019-05-10T13:35:07.181Z,53.40
2019-05-10T13:37:35.768Z,52.90
2019-05-10T13:40:07.900Z,53.80
2019-05-10T13:42:43.330Z,52.70
2019-05-10T13:45:06.789Z,51.80
2019-05-10T13:47:35.147Z,50.70
2019-05-10T13:50:05.212Z,49.90
2019-05-10T13:52:38.071Z,49.90
2019-05-10T13:55:07.073Z,50.10
2019-05-10T13:57:35.535Z,49.60
2019-05-10T14:00:07.028Z,49.40
2019-05-10T14:02:35.444Z,49.10
2019-05-10T14:05:04.700Z,49.60
2019-05-10T14:07:33.160Z,48.50
2019-05-10T14:10:01.566Z,48.90
2019-05-10T14:12:30.009Z,49.30
2019-05-10T14:15:02.602Z,47.80
2019-05-10T14:17:28.458Z,47.50
2019-05-10T14:19:56.893Z,47.00
2019-05-10T14:22:25.976Z,47.40
2019-05-10T14:24:58.883Z,47.90
2019-05-10T14:27:24.492Z,46.30
2019-05-10T14:29:52.819Z,45.90
2019-05-10T14:32:21.556Z,46.70
2019-05-10T14:34:49.963Z,46.90
2019-05-10T14:37:20.020Z,46.30
2019-05-10T14:39:48.389Z,46.30
2019-05-10T14:42:17.118Z,47.20
2019-05-10T14:44:45.569Z,47.20
2019-05-10T14:47:13.972Z,47.40
2019-05-10T14:49:46.934Z,47.40
2019-05-10T14:52:12.495Z,46.80
2019-05-10T14:54:43.820Z,46.70
2019-05-10T14:57:10.989Z,46.30
2019-05-10T14:59:39.398Z,46.00
2019-05-10T15:02:07.814Z,46.20
2019-05-10T15:04:45.280Z,45.80
2019-05-10T15:07:08.606Z,46.10
2019-05-10T15:09:36.400Z,46.60
2019-05-10T15:12:04.932Z,46.60
2019-05-10T15:14:33.337Z,45.50
2019-05-10T15:17:01.739Z,44.50
2019-05-10T15:19:31.459Z,44.90
2019-05-10T15:22:00.199Z,45.40
2019-05-10T15:24:28.634Z,45.00
2019-05-10T15:26:58.288Z,45.20
2019-05-10T15:29:26.689Z,44.90
2019-05-10T15:31:55.105Z,45.20
2019-05-10T15:34:23.539Z,45.40
2019-05-10T15:36:51.929Z,45.40
2019-05-10T15:39:23.154Z,45.30
2019-05-10T15:41:53.538Z,44.70
2019-05-10T15:44:30.299Z,44.00
2019-05-10T15:46:50.613Z,43.90
2019-05-10T15:49:23.268Z,44.30
2019-05-10T15:51:55.262Z,44.80
2019-05-10T15:54:19.163Z,44.40
2019-05-10T15:56:47.557Z,43.90
2019-05-10T15:59:19.147Z,44.40
2019-05-10T16:01:46.211Z,44.60
2019-05-10T16:04:14.793Z,44.70
2019-05-10T16:06:49.127Z,45.00
2019-05-10T16:09:19.136Z,44.90
2019-05-10T16:11:47.523Z,45.00
2019-05-10T16:14:15.874Z,44.30
2019-05-10T16:16:44.230Z,43.80
2019-05-10T16:19:17.943Z,43.70
2019-05-10T16:21:46.754Z,43.80
2019-05-10T16:24:13.648Z,44.70
2019-05-10T16:26:42.199Z,49.00
2019-05-10T16:29:10.512Z,51.70
2019-05-10T16:31:39.001Z,53.00
2019-05-10T16:34:07.414Z,54.00
2019-05-10T16:36:35.914Z,55.60
2019-05-10T16:39:06.420Z,55.10
2019-05-10T16:41:39.572Z,55.90
2019-05-10T16:44:08.313Z,56.10
2019-05-10T16:46:36.683Z,56.30
2019-05-10T16:49:10.069Z,56.50
2019-05-10T16:51:42.393Z,57.10
2019-05-10T16:54:13.408Z,57.00
2019-05-10T16:56:40.055Z,56.90
2019-05-10T16:59:08.583Z,57.20
2019-05-10T17:01:36.994Z,57.20
2019-05-10T17:04:05.883Z,57.10
2019-05-10T17:06:35.488Z,57.70
2019-05-10T17:09:12.917Z,57.30
2019-05-10T17:11:41.446Z,57.50
2019-05-10T17:14:07.224Z,57.60
2019-05-10T17:16:35.579Z,57.20
2019-05-10T17:19:03.979Z,57.00
2019-05-10T17:21:32.916Z,56.80
2019-05-10T17:24:01.252Z,57.20
2019-05-10T17:26:32.736Z,56.70
2019-05-10T17:28:59.986Z,56.80
2019-05-10T17:31:28.326Z,56.80
2019-05-10T17:33:56.645Z,57.20
2019-05-10T17:36:24.967Z,57.00
2019-05-10T17:41:36.234Z,56.50
2019-05-10T17:44:04.559Z,56.30
2019-05-10T17:46:32.918Z,56.20
2019-05-10T17:49:01.942Z,56.10
2019-05-10T17:51:30.342Z,55.90
2019-05-10T17:54:01.356Z,56.00
2019-05-10T17:56:32.819Z,56.10
2019-05-10T17:59:05.742Z,55.80
2019-05-10T18:01:30.955Z,56.60
2019-05-10T18:03:59.315Z,56.00
2019-05-10T18:06:27.649Z,56.10
2019-05-10T18:08:55.929Z,56.20
2019-05-10T18:11:24.220Z,55.80
2019-05-10T18:13:52.603Z,55.90
2019-05-10T18:16:20.898Z,56.80
2019-05-10T18:18:49.257Z,56.00
2019-05-10T18:21:21.839Z,56.10
2019-05-10T18:23:47.589Z,55.80
2019-05-10T18:26:15.887Z,55.90
2019-05-10T18:28:44.276Z,55.80
2019-05-10T18:31:12.630Z,55.60
2019-05-10T18:33:44.271Z,55.40
2019-05-10T18:36:11.190Z,55.10
2019-05-10T18:38:39.619Z,55.20
2019-05-10T18:41:09.994Z,55.60
2019-05-10T18:43:40.793Z,55.40
2019-05-10T18:46:13.895Z,55.30
2019-05-10T18:48:42.285Z,55.10
2019-05-10T18:51:10.729Z,55.10
2019-05-10T18:53:39.106Z,54.60
2019-05-10T18:56:07.500Z,54.60
2019-05-10T18:58:35.864Z,54.20
2019-05-10T19:01:04.278Z,54.20
2019-05-10T19:03:34.056Z,54.60
2019-05-10T19:06:11.197Z,54.30
2019-05-10T19:08:36.496Z,54.20
2019-05-10T19:11:05.450Z,54.60
2019-05-10T19:13:40.193Z,54.50
2019-05-10T19:16:04.186Z,54.30
2019-05-10T19:18:32.565Z,54.50
2019-05-10T19:21:00.864Z,55.10
2019-05-10T19:23:29.181Z,54.50
2019-05-10T19:25:57.540Z,54.70
2019-05-10T19:28:28.386Z,54.70
2019-05-10T19:30:59.058Z,54.90
2019-05-10T19:33:29.576Z,55.00
2019-05-10T19:35:55.919Z,54.80
2019-05-10T19:38:24.310Z,54.50
2019-05-10T19:40:52.671Z,54.20
2019-05-10T19:43:21.947Z,54.20
2019-05-10T19:45:57.199Z,54.20
2019-05-10T19:48:21.029Z,54.10
2019-05-10T19:50:49.383Z,54.30
2019-05-10T19:53:17.700Z,54.10
2019-05-10T19:55:46.073Z,54.40
2019-05-10T19:58:14.441Z,54.90
2019-05-10T20:00:42.816Z,54.80
2019-05-10T20:03:11.116Z,54.60
2019-05-10T20:05:39.413Z,54.40
2019-05-10T20:08:07.792Z,54.60
2019-05-10T20:10:36.090Z,54.20
2019-05-10T20:13:04.469Z,54.30
2019-05-10T20:15:33.112Z,54.70
2019-05-10T20:18:01.535Z,55.00
2019-05-10T20:20:29.841Z,55.10
2019-05-10T20:22:58.233Z,55.20
2019-05-10T20:25:26.590Z,55.40
2019-05-10T20:27:54.964Z,55.50
2019-05-10T20:30:23.365Z,56.00
2019-05-10T20:32:54.420Z,55.90
2019-05-10T20:35:24.933Z,56.10
2019-05-10T20:38:01.695Z,56.00
2019-05-10T20:40:23.320Z,56.40
2019-05-10T20:42:51.619Z,56.50
2019-05-10T20:45:20.491Z,56.90
2019-05-10T20:47:48.775Z,57.40
2019-05-10T20:50:17.078Z,57.70
2019-05-10T20:52:45.467Z,57.90
2019-05-10T20:55:13.843Z,57.80
2019-05-10T20:57:42.235Z,58.00
2019-05-10T21:00:10.583Z,58.30
2019-05-10T21:02:38.951Z,58.70
2019-05-10T21:05:07.332Z,59.60
2019-05-10T21:07:36.025Z,59.70
2019-05-10T21:10:05.625Z,59.30
2019-05-10T21:12:33.992Z,59.60
2019-05-10T21:15:02.421Z,59.60
2019-05-10T21:17:31.051Z,60.10
2019-05-10T21:19:59.440Z,60.00
2019-05-10T21:22:27.830Z,60.80
2019-05-10T21:24:56.232Z,60.00
2019-05-10T21:27:24.594Z,59.70
2019-05-10T21:29:52.922Z,60.20
2019-05-10T21:32:21.301Z,60.20
2019-05-10T21:34:49.662Z,60.50
2019-05-10T21:37:18.061Z,60.90
2019-05-10T21:39:46.437Z,61.40
2019-05-10T21:42:14.738Z,61.60
2019-05-10T21:44:43.412Z,61.90
2019-05-10T21:47:11.732Z,61.90
2019-05-10T21:49:40.114Z,62.10
2019-05-10T21:52:08.516Z,63.20
2019-05-10T21:54:36.878Z,63.20
2019-05-10T21:57:05.183Z,63.40
2019-05-10T21:59:33.565Z,63.00
2019-05-10T22:02:01.933Z,62.80
2019-05-10T22:04:30.341Z,62.70
2019-05-10T22:06:58.731Z,62.90
2019-05-10T22:09:27.173Z,62.40
2019-05-10T22:11:59.019Z,62.80
2019-05-10T22:14:25.559Z,62.30
2019-05-10T22:16:53.908Z,62.50
2019-05-10T22:19:23.140Z,63.00
2019-05-10T22:21:54.900Z,62.80
2019-05-10T22:24:21.467Z,63.10
2019-05-10T22:26:49.819Z,63.10
2019-05-10T22:29:18.162Z,62.80
2019-05-10T22:31:46.513Z,62.40
2019-05-10T22:34:14.873Z,62.50
2019-05-10T22:36:43.203Z,62.60
2019-05-10T22:39:11.591Z,63.20
2019-05-10T22:41:39.945Z,62.10
2019-05-10T22:44:08.272Z,62.30
2019-05-10T22:46:37.002Z,62.50
2019-05-10T22:49:05.372Z,62.90
2019-05-10T22:51:33.686Z,62.60
2019-05-10T22:54:02.054Z,62.30
2019-05-10T22:56:30.344Z,62.50
2019-05-10T22:58:58.808Z,62.10
2019-05-10T23:01:27.096Z,62.00
2019-05-10T23:03:55.478Z,62.70
2019-05-10T23:06:23.873Z,62.60
2019-05-10T23:08:52.228Z,62.70
2019-05-10T23:11:20.511Z,62.20
2019-05-10T23:13:48.834Z,62.30
2019-05-10T23:16:17.127Z,62.20
2019-05-10T23:18:45.558Z,62.70
2019-05-10T23:21:13.908Z,63.20
2019-05-10T23:23:42.262Z,63.10
2019-05-10T23:26:10.589Z,63.60
2019-05-10T23:28:39.015Z,63.90
2019-05-10T23:31:07.316Z,63.70
2019-05-10T23:33:35.620Z,63.40
2019-05-10T23:36:04.003Z,63.60
2019-05-10T23:38:32.306Z,63.90
2019-05-10T23:41:00.627Z,64.20
2019-05-10T23:43:28.964Z,64.50
2019-05-10T23:45:57.261Z,64.40
2019-05-10T23:48:25.543Z,64.20
2019-05-10T23:50:53.866Z,64.40
2019-05-10T23:53:22.495Z,64.20
2019-05-10T23:55:51.485Z,64.60
2019-05-10T23:58:19.811Z,64.40
